createdAt,value
2019-04-25T00:01:38.503Z,20.7
2019-04-25T00:03:38.479Z,20.5
2019-04-25T00:05:38.800Z,23.5
2019-04-25T00:07:38.731Z,26.9
2019-04-25T00:09:37.956Z,25.9
2019-04-25T00:11:39.303Z,24
2019-04-25T00:13:38.014Z,26
2019-04-25T00:15:38.226Z,25.9
2019-04-25T00:17:38.653Z,27.6
2019-04-25T00:19:37.101Z,29.9
2019-04-25T00:21:36.834Z,30.6
2019-04-25T00:23:37.433Z,31.5
2019-04-25T00:25:36.531Z,29.5
2019-04-25T00:29:36.422Z,30.6
2019-04-25T00:31:36.048Z,33.4
2019-04-25T00:33:37.624Z,34.2
2019-04-25T00:35:36.352Z,35.2
2019-04-25T00:37:35.792Z,35.1
2019-04-25T00:39:35.810Z,35.8
2019-04-25T00:41:35.456Z,37.1
2019-04-25T00:43:35.188Z,34.4
2019-04-25T00:45:35.036Z,35.9
2019-04-25T00:47:34.899Z,36.4
2019-04-25T00:49:34.608Z,36.2
2019-04-25T00:51:34.456Z,34.9
2019-04-25T00:53:34.768Z,35.6
2019-04-25T00:55:34.291Z,35.4
2019-04-25T00:59:33.960Z,34.7
2019-04-25T01:01:33.865Z,34.1
2019-04-25T01:03:33.591Z,34.2
2019-04-25T01:05:33.214Z,34.1
2019-04-25T01:07:34.427Z,35
2019-04-25T01:09:33.062Z,34.1
2019-04-25T01:11:33.130Z,35.1
2019-04-25T01:13:32.649Z,35.6
2019-04-25T01:15:32.503Z,35
2019-04-25T01:17:32.699Z,33.8
2019-04-25T01:19:31.970Z,34.2
2019-04-25T01:21:31.965Z,31.6
2019-04-25T01:23:33.543Z,33.3
2019-04-25T01:25:40.303Z,31.4
2019-04-25T01:27:31.299Z,35.3
2019-04-25T01:29:33.425Z,34.4
2019-04-25T01:31:33.624Z,33
2019-04-25T01:33:30.861Z,31.5
2019-04-25T01:35:31.284Z,33.4
2019-04-25T01:37:30.564Z,33.7
2019-04-25T01:39:30.507Z,28.9
2019-04-25T01:41:30.300Z,28.6
2019-04-25T01:43:29.889Z,29.5
2019-04-25T01:45:29.903Z,31.3
2019-04-25T01:47:29.800Z,30.2
2019-04-25T01:49:29.376Z,30.3
2019-04-25T01:51:30.229Z,29.9
2019-04-25T01:55:29.148Z,27.7
2019-04-25T01:57:28.713Z,28.4
2019-04-25T01:59:28.874Z,28.1
2019-04-25T02:01:28.643Z,27.1
2019-04-25T02:03:30.767Z,26.4
2019-04-25T02:05:27.958Z,27.3
2019-04-25T02:07:28.441Z,26.9
2019-04-25T02:09:27.705Z,26.5
2019-04-25T02:11:27.991Z,27.8
2019-04-25T02:13:27.222Z,25.1
2019-04-25T02:17:27.015Z,24.7
2019-04-25T02:19:27.598Z,23.5
2019-04-25T02:21:26.495Z,25.3
2019-04-25T02:23:26.354Z,22.8
2019-04-25T02:25:26.095Z,24.3
2019-04-25T02:27:25.933Z,25.2
2019-04-25T02:29:27.954Z,24.1
2019-04-25T02:31:25.714Z,24
2019-04-25T02:33:25.365Z,23.6
2019-04-25T02:35:26.496Z,23
2019-04-25T02:37:25.806Z,22.4
2019-04-25T02:39:24.915Z,22.8
2019-04-25T02:41:25.118Z,22.5
2019-04-25T02:45:24.542Z,21.2
2019-04-25T02:47:25.061Z,22.3
2019-04-25T02:49:34.885Z,23.2
2019-04-25T02:51:24.344Z,21.5
2019-04-25T02:53:23.979Z,21.8
2019-04-25T02:55:34.395Z,20.3
2019-04-25T02:57:25.139Z,22.3
2019-04-25T03:01:25.979Z,22.5
2019-04-25T03:03:24.459Z,19.8
2019-04-25T03:05:22.401Z,21.3
2019-04-25T03:07:24.576Z,19.9
2019-04-25T03:09:21.965Z,19.4
2019-04-25T03:11:24.276Z,16.9
2019-04-25T03:15:24.143Z,18.9
2019-04-25T03:17:21.240Z,17.9
2019-04-25T03:19:20.937Z,17.4
2019-04-25T03:21:20.774Z,19
2019-04-25T03:23:20.847Z,17.1
2019-04-25T03:25:20.495Z,18.7
2019-04-25T03:27:20.422Z,18.2
2019-04-25T03:29:21.725Z,17.6
2019-04-25T03:31:23.169Z,17.2
2019-04-25T03:33:20.073Z,17
2019-04-25T03:35:19.696Z,16.7
2019-04-25T03:37:19.450Z,17.8
2019-04-25T03:39:19.186Z,17.5
2019-04-25T03:41:19.043Z,15.5
2019-04-25T03:43:18.918Z,16
2019-04-25T03:45:18.841Z,16.3
2019-04-25T03:47:18.651Z,16.8
2019-04-25T03:49:18.304Z,16.1
2019-04-25T03:51:18.317Z,15.7
2019-04-25T03:53:18.599Z,15.5
2019-04-25T03:55:17.788Z,16.5
2019-04-25T03:57:17.719Z,15
2019-04-25T03:59:18.425Z,15.1
2019-04-25T04:01:17.295Z,15.2
2019-04-25T04:03:17.120Z,16
2019-04-25T04:05:16.971Z,16.4
2019-04-25T04:07:16.797Z,15.8
2019-04-25T04:09:16.598Z,16.5
2019-04-25T04:11:16.396Z,16.6
2019-04-25T04:13:16.581Z,15.4
2019-04-25T04:15:16.098Z,16.2
2019-04-25T04:17:16.114Z,16.2
2019-04-25T04:19:15.854Z,16
2019-04-25T04:21:16.280Z,15.9
2019-04-25T04:23:16.439Z,16.4
2019-04-25T04:25:15.965Z,16
2019-04-25T04:27:16.770Z,16
2019-04-25T04:29:16.525Z,16.4
2019-04-25T04:31:15.438Z,15.2
2019-04-25T04:33:27.254Z,15.8
2019-04-25T04:35:15.988Z,17
2019-04-25T04:37:15.813Z,15.9
2019-04-25T04:39:16.481Z,15.9
2019-04-25T04:41:15.137Z,16.2
2019-04-25T04:43:15.305Z,16.9
2019-04-25T04:45:14.347Z,13
2019-04-25T04:47:15.029Z,15.3
2019-04-25T04:51:14.892Z,15.6
2019-04-25T04:53:14.936Z,15.8
2019-04-25T04:55:15.777Z,15.7
2019-04-25T04:57:25.760Z,15.2
2019-04-25T04:59:14.645Z,15.7
2019-04-25T05:01:14.188Z,15.6
2019-04-25T05:03:14.223Z,14
2019-04-25T05:05:14.438Z,14.5
2019-04-25T05:07:12.078Z,15.8
2019-04-25T05:09:13.687Z,14.9
2019-04-25T05:11:14.615Z,14.7
2019-04-25T05:13:12.154Z,14.8
2019-04-25T05:15:12.452Z,15.6
2019-04-25T05:17:12.208Z,15.2
2019-04-25T05:19:14.003Z,14.6
2019-04-25T05:21:11.849Z,15
2019-04-25T05:23:10.923Z,15.5
2019-04-25T05:25:13.452Z,14.2
2019-04-25T05:27:10.796Z,11.6
2019-04-25T05:29:10.671Z,15.1
2019-04-25T05:31:10.613Z,14.2
2019-04-25T05:33:10.440Z,14.7
2019-04-25T05:35:10.461Z,14.9
2019-04-25T05:37:10.144Z,12.7
2019-04-25T05:39:10.347Z,14.5
2019-04-25T05:43:10.376Z,15.3
2019-04-25T05:45:10.200Z,13.8
2019-04-25T05:47:09.536Z,14.9
2019-04-25T05:49:09.479Z,16.2
2019-04-25T05:51:09.310Z,13.6
2019-04-25T05:53:09.088Z,15.1
2019-04-25T05:55:09.880Z,15.8
2019-04-25T05:57:09.161Z,14.4
2019-04-25T05:59:08.875Z,13.9
2019-04-25T06:01:08.806Z,13.4
2019-04-25T06:03:08.602Z,13.4
2019-04-25T06:05:08.937Z,13.5
2019-04-25T06:07:08.335Z,12.9
2019-04-25T06:09:08.646Z,13
2019-04-25T06:11:09.404Z,10.8
2019-04-25T06:13:08.363Z,11.6
2019-04-25T06:15:08.354Z,11.4
2019-04-25T06:17:07.989Z,11.2
2019-04-25T06:19:14.111Z,10.3
2019-04-25T06:21:07.694Z,10.2
2019-04-25T06:23:08.619Z,10.7
2019-04-25T06:25:12.408Z,11
2019-04-25T06:27:08.037Z,10.5
2019-04-25T06:31:10.233Z,9.7
2019-04-25T06:33:07.121Z,8.3
2019-04-25T06:35:08.324Z,8.4
2019-04-25T06:37:08.038Z,7.8
2019-04-25T06:39:08.560Z,7.5
2019-04-25T06:41:06.952Z,7.4
2019-04-25T06:43:06.809Z,7.8
2019-04-25T06:45:09.526Z,7
2019-04-25T06:47:06.644Z,5.7
2019-04-25T06:49:06.489Z,6.5
2019-04-25T06:51:06.369Z,5.8
2019-04-25T06:53:06.351Z,6.3
2019-04-25T06:55:06.752Z,5
2019-04-25T06:57:06.197Z,5.8
2019-04-25T06:59:06.230Z,5.6
2019-04-25T07:01:08.155Z,6
2019-04-25T07:03:06.052Z,6
2019-04-25T07:05:07.221Z,5.9
2019-04-25T07:07:12.402Z,4.7
2019-04-25T07:09:07.854Z,5.6
2019-04-25T07:11:05.877Z,5.9
2019-04-25T07:13:06.133Z,5.4
2019-04-25T07:15:06.787Z,5
2019-04-25T07:17:05.897Z,5.3
2019-04-25T07:19:06.315Z,5
2019-04-25T07:21:05.616Z,5
2019-04-25T07:23:05.745Z,5
2019-04-25T07:25:08.886Z,4.8
2019-04-25T07:27:05.496Z,5.1
2019-04-25T07:29:05.495Z,4.9
2019-04-25T07:31:05.502Z,4.7
2019-04-25T07:33:05.403Z,4.7
2019-04-25T07:35:06.874Z,5.2
2019-04-25T07:37:05.881Z,5.2
2019-04-25T07:39:10.482Z,5.7
2019-04-25T07:41:05.473Z,5.7
2019-04-25T07:43:05.261Z,6.2
2019-04-25T07:45:07.749Z,6.8
2019-04-25T07:47:05.875Z,6.2
2019-04-25T07:51:05.831Z,6.6
2019-04-25T07:55:06.036Z,6.1
2019-04-25T07:57:05.649Z,6.3
2019-04-25T07:59:06.223Z,6
2019-04-25T08:01:06.129Z,6.3
2019-04-25T08:03:04.907Z,6.5
2019-04-25T08:05:05.296Z,6.1
2019-04-25T08:07:04.896Z,6.3
2019-04-25T08:09:10.367Z,6.8
2019-04-25T08:11:06.778Z,6.1
2019-04-25T08:13:04.944Z,6.5
2019-04-25T08:17:05.385Z,5.9
2019-04-25T08:19:04.872Z,5.5
2019-04-25T08:21:04.596Z,5.7
2019-04-25T08:23:05.770Z,6.3
2019-04-25T08:25:05.601Z,5.6
2019-04-25T08:27:05.277Z,5.4
2019-04-25T08:29:05.301Z,5.1
2019-04-25T08:31:04.309Z,5.4
2019-04-25T08:33:04.843Z,5.8
2019-04-25T08:35:04.897Z,5.6
2019-04-25T08:37:04.227Z,5.8
2019-04-25T08:39:06.887Z,5.7
2019-04-25T08:41:05.213Z,5.5
2019-04-25T08:43:06.714Z,5.4
2019-04-25T08:45:05.928Z,5.6
2019-04-25T08:47:04.544Z,5.3
2019-04-25T08:49:06.287Z,5.4
2019-04-25T08:51:04.194Z,5.7
2019-04-25T08:53:04.240Z,5.9
2019-04-25T08:55:04.511Z,5.8
2019-04-25T08:57:04.826Z,5.7
2019-04-25T08:59:07.906Z,5.4
2019-04-25T09:01:04.193Z,5.4
2019-04-25T09:03:05.886Z,5.7
2019-04-25T09:05:05.095Z,5.4
2019-04-25T09:07:05.453Z,5.9
2019-04-25T09:09:07.242Z,5.7
2019-04-25T09:11:03.970Z,5.9
2019-04-25T09:13:04.869Z,6
2019-04-25T09:17:03.964Z,6
2019-04-25T09:19:04.749Z,6.8
2019-04-25T09:21:04.007Z,7.2
2019-04-25T09:23:05.009Z,6.4
2019-04-25T09:25:04.782Z,6.6
2019-04-25T09:27:03.928Z,7
2019-04-25T09:29:16.695Z,7.5
2019-04-25T09:31:04.039Z,7.8
2019-04-25T09:33:04.715Z,7
2019-04-25T09:35:04.452Z,7.4
2019-04-25T09:37:03.846Z,7
2019-04-25T09:39:06.615Z,6.6
2019-04-25T09:41:04.561Z,7
2019-04-25T09:43:03.999Z,6.7
2019-04-25T09:45:05.108Z,7.1
2019-04-25T09:47:03.797Z,7
2019-04-25T09:49:04.272Z,6.8
2019-04-25T09:51:05.647Z,7.2
2019-04-25T09:53:04.559Z,7.1
2019-04-25T09:55:04.122Z,7.5
2019-04-25T09:57:03.886Z,7.3
2019-04-25T09:59:04.147Z,7.3
2019-04-25T10:01:05.824Z,6.8
2019-04-25T10:03:04.649Z,6.4
2019-04-25T10:05:05.750Z,6.4
2019-04-25T10:07:03.665Z,7.2
2019-04-25T10:09:13.544Z,6.5
2019-04-25T10:11:04.144Z,5.8
2019-04-25T10:13:06.265Z,7.2
2019-04-25T10:15:27.609Z,7.1
2019-04-25T10:17:03.990Z,7.2
2019-04-25T10:21:05.471Z,8.4
2019-04-25T10:23:05.027Z,8.1
2019-04-25T10:25:04.270Z,7.4
2019-04-25T10:27:03.899Z,8.4
2019-04-25T10:29:04.459Z,9
2019-04-25T10:31:03.792Z,7.7
2019-04-25T10:33:04.118Z,8
2019-04-25T10:35:04.229Z,8.2
2019-04-25T10:37:03.719Z,9.3
2019-04-25T10:41:04.363Z,8
2019-04-25T10:45:06.211Z,8
2019-04-25T10:47:03.814Z,7.7
2019-04-25T10:49:04.397Z,7.9
2019-04-25T10:51:04.215Z,8.3
2019-04-25T10:53:04.075Z,7.6
2019-04-25T10:55:04.372Z,7.8
2019-04-25T10:59:04.301Z,8
2019-04-25T11:01:04.299Z,8
2019-04-25T11:03:04.350Z,7.6
2019-04-25T11:05:06.383Z,7.8
2019-04-25T11:07:03.958Z,8
2019-04-25T11:11:04.687Z,8.1
2019-04-25T11:13:04.110Z,8.3
2019-04-25T11:15:06.569Z,8.2
2019-04-25T11:17:04.629Z,8
2019-04-25T11:19:04.514Z,7.9
2019-04-25T11:21:06.050Z,8.1
2019-04-25T11:23:04.785Z,7.6
2019-04-25T11:25:04.576Z,7.6
2019-04-25T11:27:04.358Z,7.2
2019-04-25T11:29:04.154Z,7.3
2019-04-25T11:31:05.254Z,7.1
2019-04-25T11:33:05.077Z,7.8
2019-04-25T11:35:05.330Z,8.1
2019-04-25T11:37:05.915Z,8
2019-04-25T11:39:13.560Z,8.1
2019-04-25T11:41:04.199Z,7.7
2019-04-25T11:43:04.455Z,7.6
2019-04-25T11:45:06.030Z,7.9
2019-04-25T11:47:07.124Z,8
2019-04-25T11:49:04.537Z,8.2
2019-04-25T11:51:04.472Z,8.1
2019-04-25T11:53:04.806Z,8.5
2019-04-25T11:55:09.214Z,8.2
2019-04-25T11:57:04.527Z,8.9
2019-04-25T11:59:04.582Z,8.9
2019-04-25T12:01:05.149Z,8.3
2019-04-25T12:03:04.414Z,8.5
2019-04-25T12:05:05.806Z,8.5
2019-04-25T12:07:06.823Z,8.1
2019-04-25T12:09:06.994Z,8.4
2019-04-25T12:11:05.969Z,8
2019-04-25T12:13:04.451Z,8.2
2019-04-25T12:15:07.594Z,7.8
2019-04-25T12:17:05.000Z,8.3
2019-04-25T12:19:05.526Z,8.1
2019-04-25T12:21:04.889Z,7.9
2019-04-25T12:25:05.603Z,7.9
2019-04-25T12:27:05.968Z,8
2019-04-25T12:29:04.981Z,7.5
2019-04-25T12:31:05.043Z,7.3
2019-04-25T12:33:17.860Z,7.3
2019-04-25T12:35:06.156Z,7.4
2019-04-25T12:37:06.711Z,7.1
2019-04-25T12:39:13.800Z,7.1
2019-04-25T12:41:06.122Z,7
2019-04-25T12:43:06.205Z,7.2
2019-04-25T12:45:07.493Z,7.1
2019-04-25T12:47:07.150Z,7
2019-04-25T12:49:07.011Z,7
2019-04-25T12:51:07.228Z,7.4
2019-04-25T12:53:08.861Z,7.5
2019-04-25T12:55:07.873Z,7.2
2019-04-25T12:59:08.345Z,7.3
2019-04-25T13:01:08.797Z,7
2019-04-25T13:05:10.703Z,6.8
2019-04-25T13:07:09.252Z,7
2019-04-25T13:09:13.161Z,6.8
2019-04-25T13:11:10.578Z,7.5
2019-04-25T13:13:10.010Z,7.2
2019-04-25T13:15:11.125Z,7.1
2019-04-25T13:17:10.644Z,7.8
2019-04-25T13:19:20.366Z,7
2019-04-25T13:21:13.398Z,6.7
2019-04-25T13:23:11.565Z,6.4
2019-04-25T13:25:12.044Z,6.7
2019-04-25T13:27:14.225Z,6.2
2019-04-25T13:29:12.632Z,7.2
2019-04-25T13:31:14.794Z,6.5
2019-04-25T13:33:13.065Z,6.5
2019-04-25T13:35:13.601Z,6.4
2019-04-25T13:37:14.164Z,6.8
2019-04-25T13:39:16.248Z,6.7
2019-04-25T13:41:14.105Z,7.1
2019-04-25T13:43:14.119Z,6.6
2019-04-25T13:45:14.601Z,7
2019-04-25T13:47:15.583Z,6.9
2019-04-25T13:49:15.107Z,6.7
2019-04-25T13:51:15.592Z,7
2019-04-25T13:53:15.847Z,7
2019-04-25T13:55:16.267Z,7
2019-04-25T13:57:16.172Z,7
2019-04-25T13:59:16.955Z,7.3
2019-04-25T14:01:17.526Z,7.1
2019-04-25T14:03:17.133Z,6.7
2019-04-25T14:05:17.448Z,7
2019-04-25T14:07:17.488Z,6.9
2019-04-25T14:13:19.495Z,7.3
2019-04-25T14:17:18.864Z,7.2
2019-04-25T14:19:19.998Z,7.3
2019-04-25T14:21:19.139Z,7.3
2019-04-25T14:23:19.367Z,7.1
2019-04-25T14:25:20.376Z,7.2
2019-04-25T14:27:19.988Z,7
2019-04-25T14:29:20.489Z,7.2
2019-04-25T14:31:35.352Z,7.1
2019-04-25T14:33:23.063Z,7.6
2019-04-25T14:35:21.611Z,7.8
2019-04-25T14:37:23.820Z,7.5
2019-04-25T14:39:21.506Z,7
2019-04-25T14:41:22.782Z,6.9
2019-04-25T14:43:22.499Z,7.6
2019-04-25T14:45:22.652Z,7.1
2019-04-25T14:47:23.268Z,7.4
2019-04-25T14:49:22.656Z,8.4
2019-04-25T14:57:24.316Z,7.6
2019-04-25T15:01:24.084Z,7.8
2019-04-25T15:03:24.287Z,8.7
2019-04-25T15:05:24.813Z,8.9
2019-04-25T15:07:24.471Z,8.2
2019-04-25T15:09:25.255Z,8.6
2019-04-25T15:11:24.784Z,8.2
2019-04-25T15:13:25.804Z,9
2019-04-25T15:15:25.031Z,9.1
2019-04-25T15:19:25.467Z,8.8
2019-04-25T15:21:26.238Z,8.7
2019-04-25T15:23:27.265Z,8.8
2019-04-25T15:25:27.287Z,8.1
2019-04-25T15:27:26.301Z,8.5
2019-04-25T15:29:26.538Z,8.8
2019-04-25T15:31:25.691Z,9.3
2019-04-25T15:33:26.406Z,8.2
2019-04-25T15:37:26.489Z,8.6
2019-04-25T15:39:26.179Z,8.6
2019-04-25T15:41:26.225Z,8.6
2019-04-25T15:43:26.311Z,8.6
2019-04-25T15:45:26.386Z,8.4
2019-04-25T15:47:26.429Z,8.9
2019-04-25T15:49:25.796Z,8.4
2019-04-25T15:51:26.884Z,8.6
2019-04-25T15:53:25.944Z,8
2019-04-25T15:55:26.214Z,8.4
2019-04-25T15:59:27.415Z,8.6
2019-04-25T16:01:26.522Z,8.4
2019-04-25T16:03:26.015Z,8.2
2019-04-25T16:05:26.614Z,8.8
2019-04-25T16:07:27.145Z,8.3
2019-04-25T16:09:26.782Z,8.4
2019-04-25T16:11:28.035Z,8.3
2019-04-25T16:15:27.590Z,8.6
2019-04-25T16:17:27.185Z,8.6
2019-04-25T16:19:26.079Z,8.5
2019-04-25T16:21:27.661Z,8.6
2019-04-25T16:23:26.082Z,8.9
2019-04-25T16:25:26.217Z,8.4
2019-04-25T16:27:28.853Z,8.7
2019-04-25T16:33:26.470Z,8.6
2019-04-25T16:37:26.010Z,8.8
2019-04-25T16:41:26.142Z,8.9
2019-04-25T16:43:25.834Z,8.9
2019-04-25T16:45:25.834Z,8.9
2019-04-25T16:47:25.874Z,8.6
2019-04-25T16:49:25.866Z,8.7
2019-04-25T16:51:25.774Z,9.5
2019-04-25T16:53:26.021Z,9.2
2019-04-25T16:55:25.728Z,9.3
2019-04-25T16:57:25.804Z,9
2019-04-25T16:59:26.260Z,9.5
2019-04-25T17:01:25.746Z,8.6
2019-04-25T17:03:25.619Z,8.7
2019-04-25T17:05:25.745Z,7.9
2019-04-25T17:07:25.727Z,8.5
2019-04-25T17:09:25.773Z,8.9
2019-04-25T17:11:26.067Z,8.9
2019-04-25T17:13:25.532Z,9.2
2019-04-25T17:15:25.501Z,9.2
2019-04-25T17:17:25.941Z,9.5
2019-04-25T17:19:25.840Z,10.2
2019-04-25T17:21:25.479Z,10.3
2019-04-25T17:23:26.547Z,9.8
2019-04-25T17:27:25.708Z,9.4
2019-04-25T17:29:25.535Z,9.9
2019-04-25T17:31:25.401Z,9.2
2019-04-25T17:33:25.660Z,10.3
2019-04-25T17:35:25.362Z,9.7
2019-04-25T17:37:26.155Z,10.2
2019-04-25T17:39:25.294Z,9.9
2019-04-25T17:41:25.218Z,9.9
2019-04-25T17:43:25.196Z,9.7
2019-04-25T17:45:25.148Z,9.9
2019-04-25T17:47:25.170Z,9.8
2019-04-25T17:49:25.003Z,9.1
2019-04-25T17:51:25.078Z,9.5
2019-04-25T17:53:25.466Z,9.9
2019-04-25T17:55:24.771Z,9.5
2019-04-25T17:57:25.143Z,10.5
2019-04-25T17:59:25.275Z,9.9
2019-04-25T18:01:24.899Z,9.7
2019-04-25T18:03:24.820Z,11.4
2019-04-25T18:05:24.948Z,9.8
2019-04-25T18:07:24.672Z,10.6
2019-04-25T18:09:24.705Z,10.7
2019-04-25T18:11:25.346Z,10.4
2019-04-25T18:13:24.580Z,11.3
2019-04-25T18:15:24.400Z,12.3
2019-04-25T18:17:24.459Z,11.7
2019-04-25T18:19:25.880Z,11.3
2019-04-25T18:21:24.442Z,13.7
2019-04-25T18:23:24.299Z,11.3
2019-04-25T18:25:24.220Z,11.2
2019-04-25T18:27:24.240Z,11.2
2019-04-25T18:29:24.697Z,11.7
2019-04-25T18:31:24.143Z,12.3
2019-04-25T18:33:24.118Z,8.8
2019-04-25T18:37:24.055Z,10.3
2019-04-25T18:39:23.829Z,9.6
2019-04-25T18:41:25.700Z,11.1
2019-04-25T18:45:24.861Z,10.1
2019-04-25T18:47:23.810Z,10.9
2019-04-25T18:49:23.760Z,11.8
2019-04-25T18:51:23.833Z,10.5
2019-04-25T18:53:24.092Z,10.8
2019-04-25T18:55:23.681Z,9.8
2019-04-25T18:57:23.557Z,9.6
2019-04-25T18:59:24.208Z,9.4
2019-04-25T19:01:23.658Z,10.1
2019-04-25T19:03:25.956Z,10.4
2019-04-25T19:05:23.599Z,8.6
2019-04-25T19:07:23.352Z,9.4
2019-04-25T19:09:23.384Z,8.3
2019-04-25T19:11:23.420Z,11.6
2019-04-25T19:13:23.266Z,9.2
2019-04-25T19:15:23.211Z,8.5
2019-04-25T19:19:23.239Z,8.8
2019-04-25T19:25:22.986Z,11.1
2019-04-25T19:27:23.819Z,9.2
2019-04-25T19:29:22.938Z,8.6
2019-04-25T19:31:22.734Z,8.4
2019-04-25T19:33:34.710Z,10.1
2019-04-25T19:35:24.369Z,11.1
2019-04-25T19:37:22.703Z,9.6
2019-04-25T19:39:22.581Z,8.9
2019-04-25T19:41:22.476Z,9.1
2019-04-25T19:43:22.144Z,8.9
2019-04-25T19:45:22.179Z,9.4
2019-04-25T19:47:22.124Z,9.3
2019-04-25T19:49:22.015Z,9.8
2019-04-25T19:53:21.955Z,9.4
2019-04-25T19:55:21.860Z,9.4
2019-04-25T19:57:21.754Z,9.8
2019-04-25T19:59:22.299Z,9.5
2019-04-25T20:01:21.808Z,11.1
2019-04-25T20:03:21.492Z,9.9
2019-04-25T20:05:21.558Z,9.8
2019-04-25T20:07:21.663Z,9.3
2019-04-25T20:09:21.500Z,8.9
2019-04-25T20:11:21.360Z,10.1
2019-04-25T20:13:21.209Z,9
2019-04-25T20:15:21.174Z,9.2
2019-04-25T20:17:21.092Z,9.2
2019-04-25T20:19:20.938Z,9.2
2019-04-25T20:21:20.880Z,9.2
2019-04-25T20:23:21.059Z,9.1
2019-04-25T20:25:20.856Z,9.4
2019-04-25T20:27:20.705Z,9
2019-04-25T20:31:20.940Z,8.6
2019-04-25T20:33:20.576Z,9.1
2019-04-25T20:35:20.443Z,9.5
2019-04-25T20:37:20.832Z,9.7
2019-04-25T20:39:20.274Z,9.2
2019-04-25T20:41:21.106Z,9.2
2019-04-25T20:43:19.936Z,8.9
2019-04-25T20:45:20.084Z,9.1
2019-04-25T20:47:20.229Z,9.8
2019-04-25T20:49:20.096Z,8.8
2019-04-25T20:51:19.784Z,9.7
2019-04-25T20:53:20.724Z,10
2019-04-25T20:55:20.427Z,11
2019-04-25T20:57:19.515Z,9.4
2019-04-25T20:59:19.925Z,9.5
2019-04-25T21:01:19.779Z,9.8
2019-04-25T21:07:19.045Z,10
2019-04-25T21:09:19.501Z,9.4
2019-04-25T21:11:18.795Z,9.8
2019-04-25T21:13:18.818Z,9.5
2019-04-25T21:15:18.671Z,9.6
2019-04-25T21:17:18.553Z,9
2019-04-25T21:19:20.101Z,8.8
2019-04-25T21:21:18.330Z,8.5
2019-04-25T21:23:18.336Z,9
2019-04-25T21:25:19.921Z,9.3
2019-04-25T21:27:18.048Z,9.2
2019-04-25T21:29:17.959Z,8.9
2019-04-25T21:31:18.477Z,9
2019-04-25T21:33:18.044Z,8.7
2019-04-25T21:35:17.831Z,9.4
2019-04-25T21:37:18.241Z,9
2019-04-25T21:39:17.533Z,8.7
2019-04-25T21:41:18.924Z,8.5
2019-04-25T21:43:17.708Z,9.4
2019-04-25T21:45:17.463Z,9.5
2019-04-25T21:47:17.580Z,9.7
2019-04-25T21:49:18.094Z,9.5
2019-04-25T21:51:17.111Z,9.6
2019-04-25T21:53:17.076Z,9.9
2019-04-25T21:55:16.832Z,10.2
2019-04-25T21:57:16.752Z,9.9
2019-04-25T21:59:16.714Z,9.5
2019-04-25T22:01:20.606Z,10
2019-04-25T22:03:17.387Z,10.4
2019-04-25T22:05:16.612Z,9.9
2019-04-25T22:07:16.886Z,9.9
2019-04-25T22:09:16.281Z,9.7
2019-04-25T22:11:16.187Z,9.3
2019-04-25T22:15:15.952Z,10.1
2019-04-25T22:17:15.880Z,10
2019-04-25T22:19:15.961Z,9.9
2019-04-25T22:21:15.720Z,9.9
2019-04-25T22:23:16.633Z,9.8
2019-04-25T22:25:15.499Z,10.2
2019-04-25T22:27:15.386Z,10.9
2019-04-25T22:31:15.335Z,9.9
2019-04-25T22:33:15.127Z,10
2019-04-25T22:35:15.598Z,10.3
2019-04-25T22:37:15.034Z,10.2
2019-04-25T22:39:15.038Z,9.5
2019-04-25T22:41:15.335Z,9.9
2019-04-25T22:43:14.914Z,10.4
2019-04-25T22:45:14.676Z,9.5
2019-04-25T22:47:17.399Z,9.5
2019-04-25T22:49:15.680Z,10.3
2019-04-25T22:51:14.471Z,9.6
2019-04-25T22:53:21.825Z,10.2
2019-04-25T22:55:14.365Z,10.1
2019-04-25T22:57:14.213Z,9.5
2019-04-25T22:59:14.294Z,11.1
2019-04-25T23:01:14.262Z,10.8
2019-04-25T23:03:14.008Z,10.1
2019-04-25T23:05:16.067Z,9.1
2019-04-25T23:07:13.585Z,9.7
2019-04-25T23:09:14.628Z,9.6
2019-04-25T23:11:14.541Z,10.6
2019-04-25T23:13:13.391Z,10.4
2019-04-25T23:15:13.693Z,9.6
2019-04-25T23:17:13.822Z,9.9
2019-04-25T23:19:13.422Z,9.8
2019-04-25T23:21:13.056Z,9.5
2019-04-25T23:23:13.914Z,10.1
2019-04-25T23:25:14.131Z,9.5
2019-04-25T23:27:14.521Z,9.5
2019-04-25T23:29:12.909Z,9.2
2019-04-25T23:31:12.642Z,9.4
2019-04-25T23:33:12.602Z,9.6
2019-04-25T23:37:12.162Z,9.4
2019-04-25T23:39:11.941Z,9.9
2019-04-25T23:41:13.541Z,9.7
2019-04-25T23:43:13.698Z,9.6
2019-04-25T23:45:12.421Z,9.9
2019-04-25T23:47:12.130Z,10.3
2019-04-25T23:49:11.251Z,9.9
2019-04-25T23:51:11.320Z,9.5
2019-04-25T23:53:11.282Z,9.3
2019-04-25T23:57:11.726Z,9.9
2019-04-25T23:59:11.504Z,10.1
